Terminal Aerodrome Forecast
Issued by NWS

Current Version | Previous Version | Text Only | Print | Product List | Glossary Off
Versions: 1 2 3 4 5 6 7 8 9 10 11 12 13 14 15 16 17 18

552
FTUS41 KPBZ 102320
TAFMGW
TAF
KMGW 102320Z 1100/1124 21007KT P6SM BKN050
     FM110500 24008KT P6SM VCSH OVC025
     FM110900 27010KT P6SM OVC015
     FM112000 22006KT P6SM BKN070=

USA.gov is the U.S. government's official web portal to all federal, state and local government web resources and services.